Crotto, Argentina
Current Conditions -  °F | °C
As of 2:00 PM on Friday 28 Nov 2014 (Local Time) from SAEZ Reporting Station
Clear Clear  
Wind Chill: 29°   Ceiling: Unl
Heat Index: 29°   Visibility: 6mi
Dew Point:   Wind: 16mph
Humidity: 23%   Direction: 50°NE
Pressure: 29.94"   Gusts: NA
Location:  36.58°S, 60.18°W
Report Text: SAEZ 281700Z 05014KT CAVOK 29/06 Q1014
Loading
Personal Weather Stations






























Interactive Weather Map New forecast layout! Learn more

10-Day Weather Forecast

Advertisements
Track Severe Weather on mobile